Forside
METAR-TAF:

METAR-TAF

Lufthavne :

Hargeysa, Somalia

Breddekreds: 09-30N, længdekreds: 044-05E, højde: 1326 m

Aktuelle vejr

Denne rapport blev lavet for 11 timer og 0 minutter siden, kl. 13:00 UTC
Vind 17 kt fra syd
Temperatur 30°C
Fugtighed 40%
Tryk 1015 hPa
Sigt 10 km eller mere
Nogle få skyer i en højde af 3000 ft

METAR: HCMH 161300Z 18017KT 9999 FEW030 30/15 Q1015

Tid: 03:00 (00:00 UTC)


TAF: fraværende

Vejrobservationer og prognoser fra mere end 4000 lufthavne (METAR og TAF).

De gule og røde prikker repræsenterer de meteorologiske stationer.

Flyt musen over at se navnet på stationen.

Så klik over at se vejr observationer og prognoser.

At skifte det kort: Klik på de grønne knapper med et sort kors for at zoome ind; på den grønne knap med en bindestreg for at zoome ud; eller på de grønne pile for tilstødende kort.


METAR-TAF: